Time;durP1;ratioP1;P1;durP2;ratioP2;P2;SDS_P1;SDS_P2;PMS_P1;PMS_P2;Temp;Humidity;BMP_temperature;BMP_pressure;BME280_temperature;BME280_humidity;BME280_pressure;Samples;Min_cycle;Max_cycle;Signal;HPM_P1;HPM_P2
2022/08/21 00:00:11;;;;;;;24.97;21.03;;;15.80;99.90;;;;;;5013029;28;20270;-78
2022/08/21 00:02:36;;;;;;;73.77;66.23;;;15.80;99.90;;;;;;5012556;28;20739;-78
2022/08/21 00:05:04;;;;;;;51.13;46.20;;;15.80;99.90;;;;;;5011682;28;20171;-77
2022/08/21 00:07:29;;;;;;;31.77;16.83;;;15.80;99.90;;;;;;5011918;28;20183;-77
2022/08/21 00:09:56;;;;;;;37.13;18.23;;;15.80;99.90;;;;;;5013625;28;20660;-78
2022/08/21 00:12:21;;;;;;;41.73;18.60;;;15.80;99.90;;;;;;5013174;28;20188;-77
2022/08/21 00:14:47;;;;;;;45.90;23.63;;;15.80;99.90;;;;;;5013388;28;20660;-78
2022/08/21 00:17:13;;;;;;;40.90;18.43;;;15.90;99.90;;;;;;5010755;28;20267;-78
2022/08/21 00:19:39;;;;;;;24.13;18.87;;;15.80;99.90;;;;;;5012582;28;20291;-78
2022/08/21 00:22:06;;;;;;;72.17;23.80;;;15.80;99.90;;;;;;5011263;28;20643;-78
2022/08/21 00:24:31;;;;;;;57.67;19.20;;;15.80;99.90;;;;;;5012588;28;20210;-77
2022/08/21 00:26:58;;;;;;;34.90;17.57;;;15.70;99.90;;;;;;5012486;28;20180;-77
2022/08/21 00:29:24;;;;;;;54.20;25.43;;;15.70;99.90;;;;;;5026935;28;20264;-78
2022/08/21 00:31:50;;;;;;;105.43;53.57;;;15.70;99.90;;;;;;5011114;28;20183;-78
2022/08/21 00:34:16;;;;;;;71.07;62.40;;;15.60;99.90;;;;;;5011229;28;20187;-78
2022/08/21 00:36:42;;;;;;;63.80;54.40;;;15.60;99.90;;;;;;5009938;28;20179;-79
2022/08/21 00:39:09;;;;;;;37.93;22.67;;;15.70;99.90;;;;;;5010533;28;20315;-77
2022/08/21 00:41:37;;;;;;;24.60;18.23;;;15.60;99.90;;;;;;5012081;28;20202;-79
2022/08/21 00:44:05;;;;;;;26.53;23.60;;;15.60;99.90;;;;;;5010479;28;20226;-76
2022/08/21 00:46:31;;;;;;;21.53;18.83;;;15.50;99.90;;;;;;5011925;28;20190;-78
2022/08/21 00:48:57;;;;;;;23.83;21.33;;;15.50;99.90;;;;;;5009692;28;20215;-76
2022/08/21 00:51:38;;;;;;;41.20;37.37;;;15.50;99.90;;;;;;5012213;28;20268;-77
2022/08/21 00:54:05;;;;;;;31.17;17.80;;;15.50;99.90;;;;;;5012329;28;20656;-76
2022/08/21 00:56:32;;;;;;;54.50;32.60;;;15.50;99.90;;;;;;5012604;28;20203;-79
2022/08/21 00:59:00;;;;;;;42.70;38.90;;;15.40;99.90;;;;;;5011595;28;20207;-78
2022/08/21 01:01:27;;;;;;;82.83;74.50;;;15.40;99.90;;;;;;5012991;28;20227;-79
2022/08/21 01:03:53;;;;;;;104.70;96.57;;;15.40;99.90;;;;;;5012371;28;20203;-78
2022/08/21 01:06:20;;;;;;;49.50;44.30;;;15.40;99.90;;;;;;5011508;28;20641;-79
2022/08/21 01:08:46;;;;;;;48.37;38.37;;;15.40;99.90;;;;;;5012316;28;20234;-79
2022/08/21 01:11:14;;;;;;;43.13;36.87;;;15.40;99.90;;;;;;5022527;28;20183;-79
2022/08/21 01:13:44;;;;;;;55.00;38.97;;;15.30;99.90;;;;;;5018881;28;20242;-79
2022/08/21 01:16:10;;;;;;;61.53;45.73;;;15.30;99.90;;;;;;4994023;28;20180;-79
2022/08/21 01:18:36;;;;;;;66.63;47.37;;;15.30;99.90;;;;;;4992917;28;20665;-77
2022/08/21 01:21:12;;;;;;;85.00;35.80;;;15.30;99.90;;;;;;4990995;28;20188;-77
2022/08/21 01:23:40;;;;;;;173.60;110.17;;;15.20;99.90;;;;;;4992087;28;20697;-79
2022/08/21 01:26:07;;;;;;;138.07;126.10;;;15.10;99.90;;;;;;4991486;28;20223;-78
2022/08/21 01:28:41;;;;;;;75.33;33.13;;;15.10;99.90;;;;;;4996072;28;20241;-78
2022/08/21 01:31:11;;;;;;;49.20;25.83;;;15.20;99.90;;;;;;5012693;28;20652;-78
2022/08/21 01:33:37;;;;;;;43.57;20.43;;;15.20;99.90;;;;;;5011894;28;20190;-79
2022/08/21 01:36:04;;;;;;;33.30;19.03;;;15.20;99.90;;;;;;5019592;28;20183;-79
2022/08/21 01:38:30;;;;;;;36.57;18.67;;;15.10;99.90;;;;;;5020898;28;20215;-78
2022/08/21 01:40:56;;;;;;;44.30;20.30;;;15.10;99.90;;;;;;5015362;28;20195;-79
2022/08/21 01:43:22;;;;;;;39.80;21.90;;;15.10;99.90;;;;;;5012089;28;20269;-78
2022/08/21 01:45:48;;;;;;;35.00;22.27;;;15.00;99.90;;;;;;5012344;28;20181;-78
2022/08/21 01:48:14;;;;;;;41.03;22.17;;;15.00;99.90;;;;;;5010187;28;20282;-78
2022/08/21 01:50:40;;;;;;;31.43;20.07;;;15.00;99.90;;;;;;5011753;28;20199;-78
2022/08/21 01:53:06;;;;;;;39.60;18.57;;;15.00;99.90;;;;;;5011457;28;20187;-78
2022/08/21 01:55:32;;;;;;;44.87;21.07;;;14.90;99.90;;;;;;5011534;28;20237;-78
2022/08/21 01:57:59;;;;;;;57.93;21.43;;;14.90;99.90;;;;;;5008980;28;20680;-77
2022/08/21 02:00:25;;;;;;;51.87;21.00;;;14.90;99.90;;;;;;5011592;28;20649;-78
2022/08/21 02:02:51;;;;;;;34.23;17.80;;;14.80;99.90;;;;;;5011343;28;20250;-77
2022/08/21 02:05:18;;;;;;;40.57;18.20;;;14.80;99.90;;;;;;5011461;28;20227;-77
2022/08/21 02:07:47;;;;;;;32.73;17.77;;;14.80;99.90;;;;;;5010555;28;20205;-77
2022/08/21 02:10:18;;;;;;;22.73;15.00;;;14.80;99.90;;;;;;5011582;28;20231;-78
2022/08/21 02:12:44;;;;;;;36.30;21.83;;;14.70;99.90;;;;;;5022281;28;20207;-78
2022/08/21 02:15:10;;;;;;;25.57;20.73;;;14.70;99.90;;;;;;5025971;28;20198;-78
2022/08/21 02:17:39;;;;;;;35.53;14.43;;;14.70;99.90;;;;;;5023906;28;20196;-78
2022/08/21 02:20:06;;;;;;;48.57;16.40;;;14.70;99.90;;;;;;5015271;28;20175;-78
2022/08/21 02:22:32;;;;;;;53.27;18.47;;;14.60;99.90;;;;;;5015102;28;20211;-78
2022/08/21 02:24:57;;;;;;;38.37;26.90;;;14.60;99.90;;;;;;5013892;28;20183;-77
2022/08/21 02:27:24;;;;;;;45.33;41.83;;;14.60;99.90;;;;;;5011908;28;20186;-78
2022/08/21 02:29:50;;;;;;;71.53;66.43;;;14.60;99.90;;;;;;5014052;28;20658;-73
2022/08/21 02:32:16;;;;;;;81.10;74.77;;;14.60;99.90;;;;;;5009005;28;20194;-73
2022/08/21 02:34:42;;;;;;;93.33;86.67;;;14.60;99.90;;;;;;5021940;28;20172;-73
2022/08/21 02:37:08;;;;;;;79.30;74.90;;;14.60;99.90;;;;;;5011953;28;20210;-73
2022/08/21 02:39:34;;;;;;;77.87;71.87;;;14.60;99.90;;;;;;5012570;28;20695;-73
2022/08/21 02:42:00;;;;;;;81.50;75.23;;;14.60;99.90;;;;;;5013374;28;20209;-73
2022/08/21 02:44:25;;;;;;;19.70;13.27;;;14.60;99.90;;;;;;5013315;28;20219;-73
2022/08/21 02:46:51;;;;;;;63.40;24.73;;;14.60;99.90;;;;;;5013754;28;20228;-73
2022/08/21 02:49:17;;;;;;;22.53;13.73;;;14.60;99.90;;;;;;5015562;28;20656;-73
2022/08/21 02:51:43;;;;;;;48.33;17.33;;;14.60;99.90;;;;;;5012502;28;20276;-73
2022/08/21 02:54:08;;;;;;;40.80;12.53;;;14.60;99.90;;;;;;5013204;28;20188;-73
2022/08/21 02:56:34;;;;;;;23.47;12.47;;;14.60;99.90;;;;;;5012192;28;20196;-74
2022/08/21 02:59:00;;;;;;;37.60;19.17;;;14.50;99.90;;;;;;5012655;28;20199;-73
2022/08/21 03:01:26;;;;;;;30.70;27.60;;;14.50;99.90;;;;;;5013405;28;20183;-73
2022/08/21 03:03:53;;;;;;;54.40;29.43;;;14.50;99.90;;;;;;5013125;28;20210;-73
2022/08/21 03:06:21;;;;;;;35.00;31.57;;;14.50;99.90;;;;;;5013435;28;20187;-73
2022/08/21 03:08:47;;;;;;;35.50;29.73;;;14.50;99.90;;;;;;5011006;28;20657;-73
2022/08/21 03:11:14;;;;;;;48.00;26.70;;;14.50;99.90;;;;;;5011969;28;20218;-73
2022/08/21 03:13:40;;;;;;;55.47;23.23;;;14.50;99.90;;;;;;5013314;28;20279;-73
2022/08/21 03:16:07;;;;;;;53.40;27.83;;;14.50;99.90;;;;;;5013258;28;20648;-73
2022/08/21 03:18:33;;;;;;;32.93;29.67;;;14.40;99.90;;;;;;5012412;28;20200;-74
2022/08/21 03:20:59;;;;;;;30.73;27.30;;;14.40;99.90;;;;;;5011985;28;20567;-73
2022/08/21 03:23:24;;;;;;;34.27;18.00;;;14.40;99.90;;;;;;5012495;28;20207;-74
2022/08/21 03:25:50;;;;;;;33.67;20.40;;;14.40;99.90;;;;;;5012106;28;20255;-73
2022/08/21 03:28:21;;;;;;;71.90;20.57;;;14.40;99.90;;;;;;5012133;28;20243;-73
2022/08/21 03:30:49;;;;;;;75.67;39.87;;;14.40;99.90;;;;;;5012848;28;20184;-73
2022/08/21 03:33:15;;;;;;;64.97;59.53;;;14.40;99.90;;;;;;5012963;28;20205;-73
2022/08/21 03:35:43;;;;;;;53.30;38.80;;;14.30;99.90;;;;;;5011773;28;20250;-73
2022/08/21 03:38:10;;;;;;;37.73;34.97;;;14.30;99.90;;;;;;5010625;28;20648;-73
2022/08/21 03:40:36;;;;;;;39.50;15.97;;;14.30;99.90;;;;;;5012693;28;20825;-74
2022/08/21 03:43:01;;;;;;;24.07;14.37;;;14.40;99.90;;;;;;5012530;28;20238;-73
2022/08/21 03:45:28;;;;;;;31.23;15.97;;;14.40;99.90;;;;;;5013384;28;20675;-74
2022/08/21 03:48:00;;;;;;;26.10;16.53;;;14.40;99.90;;;;;;5011239;28;20195;-73
2022/08/21 03:50:30;;;;;;;26.67;15.80;;;14.40;99.90;;;;;;5011091;28;20216;-74
2022/08/21 03:52:56;;;;;;;44.07;25.83;;;14.40;99.90;;;;;;5011481;28;20195;-74
2022/08/21 03:55:23;;;;;;;28.20;24.97;;;14.30;99.90;;;;;;5011511;28;20279;-74
2022/08/21 03:57:49;;;;;;;78.20;71.10;;;14.30;99.90;;;;;;5011698;28;20223;-73
2022/08/21 04:00:16;;;;;;;90.97;85.13;;;14.30;99.90;;;;;;5011995;28;20187;-73
2022/08/21 04:02:43;;;;;;;35.47;33.00;;;14.30;99.90;;;;;;5012611;28;20215;-73
2022/08/21 04:05:10;;;;;;;16.67;15.40;;;14.20;99.90;;;;;;5012433;28;20179;-73
2022/08/21 04:07:36;;;;;;;16.30;14.80;;;14.00;99.90;;;;;;5012481;28;20186;-73
2022/08/21 04:10:05;;;;;;;22.20;16.70;;;13.80;99.90;;;;;;5012490;28;20715;-74
2022/08/21 04:12:31;;;;;;;15.03;13.73;;;13.70;99.90;;;;;;5012052;28;20194;-73
2022/08/21 04:14:57;;;;;;;25.73;21.33;;;13.60;99.90;;;;;;5012172;28;20235;-73
2022/08/21 04:17:23;;;;;;;30.60;28.70;;;13.60;99.90;;;;;;5011114;28;20202;-74
2022/08/21 04:19:49;;;;;;;43.93;35.10;;;13.70;99.90;;;;;;5004528;28;20196;-74
2022/08/21 04:22:15;;;;;;;34.73;19.60;;;13.80;99.90;;;;;;5010215;28;20187;-75
2022/08/21 04:24:41;;;;;;;17.83;15.07;;;13.80;99.90;;;;;;5011991;28;20651;-74
2022/08/21 04:27:07;;;;;;;63.30;11.67;;;13.90;99.90;;;;;;5010652;28;20195;-74
2022/08/21 04:29:33;;;;;;;43.50;34.13;;;13.90;99.90;;;;;;5010102;28;20223;-73
2022/08/21 04:31:59;;;;;;;41.73;33.00;;;13.90;99.90;;;;;;5011855;28;20198;-74
2022/08/21 04:34:25;;;;;;;32.47;29.90;;;13.90;99.90;;;;;;5010779;28;20330;-74
2022/08/21 04:36:51;;;;;;;48.53;44.67;;;13.90;99.90;;;;;;5010817;28;20204;-74
2022/08/21 04:39:16;;;;;;;50.80;46.17;;;13.90;99.90;;;;;;5010427;28;20738;-74
2022/08/21 04:41:42;;;;;;;25.13;23.47;;;13.80;99.90;;;;;;5010874;28;20629;-73
2022/08/21 04:44:08;;;;;;;44.30;41.57;;;13.80;99.90;;;;;;5011758;28;20207;-74
2022/08/21 04:46:34;;;;;;;34.17;30.87;;;13.90;99.90;;;;;;5012194;28;20187;-73
2022/08/21 04:49:01;;;;;;;29.87;26.67;;;13.90;99.90;;;;;;5009994;28;20196;-74
2022/08/21 04:51:34;;;;;;;33.77;30.93;;;14.00;99.90;;;;;;5010176;28;20281;-73
2022/08/21 04:54:17;;;;;;;44.97;41.17;;;14.00;99.90;;;;;;5011792;28;20180;-73
2022/08/21 04:56:48;;;;;;;20.30;14.43;;;14.00;99.90;;;;;;5008836;28;20203;-73
2022/08/21 04:59:22;;;;;;;37.63;33.87;;;14.00;99.90;;;;;;5011071;28;20289;-74
2022/08/21 05:01:49;;;;;;;36.13;33.60;;;14.00;99.90;;;;;;5009791;28;20182;-73
2022/08/21 05:04:18;;;;;;;66.87;61.10;;;14.00;99.90;;;;;;5009307;28;20208;-74
2022/08/21 05:06:47;;;;;;;31.90;23.97;;;14.00;99.90;;;;;;5010418;28;20190;-74
2022/08/21 05:09:16;;;;;;;45.53;15.03;;;14.00;99.90;;;;;;5009603;28;20204;-74
2022/08/21 05:11:42;;;;;;;31.33;27.63;;;14.00;99.90;;;;;;5010315;28;20176;-74
2022/08/21 05:14:09;;;;;;;18.40;13.57;;;14.00;99.90;;;;;;5010023;28;20270;-74
2022/08/21 05:16:35;;;;;;;18.93;11.90;;;14.00;99.90;;;;;;5008840;28;20233;-74
2022/08/21 05:19:01;;;;;;;9.50;8.57;;;14.00;99.90;;;;;;5009565;28;20199;-74
2022/08/21 05:21:27;;;;;;;13.87;12.63;;;14.00;99.90;;;;;;5010945;28;20191;-74
2022/08/21 05:23:53;;;;;;;8.60;8.20;;;14.00;99.90;;;;;;5009676;28;20579;-73
2022/08/21 05:26:19;;;;;;;31.80;12.17;;;14.10;99.90;;;;;;5009826;28;20187;-73
2022/08/21 05:28:44;;;;;;;17.50;16.60;;;14.10;99.90;;;;;;5010469;28;20218;-74
2022/08/21 05:31:10;;;;;;;20.77;19.37;;;14.20;99.90;;;;;;5010904;28;20582;-74
2022/08/21 05:33:36;;;;;;;63.20;20.33;;;14.40;99.90;;;;;;5009028;28;20198;-74
2022/08/21 05:36:02;;;;;;;14.00;13.13;;;14.50;99.90;;;;;;5010778;28;20561;-73
2022/08/21 05:38:28;;;;;;;10.93;9.93;;;14.50;99.90;;;;;;5009583;28;20595;-73
2022/08/21 05:40:54;;;;;;;6.90;6.50;;;14.60;99.90;;;;;;5008371;28;20184;-73
2022/08/21 05:43:20;;;;;;;7.43;6.93;;;14.80;99.90;;;;;;5009288;28;20222;-73
2022/08/21 05:45:47;;;;;;;31.70;28.47;;;14.90;99.90;;;;;;4999392;28;20184;-73
2022/08/21 05:48:19;;;;;;;30.23;28.77;;;15.00;99.90;;;;;;4988686;28;20207;-74
2022/08/21 05:50:47;;;;;;;9.70;9.00;;;15.00;99.90;;;;;;4989983;28;20249;-73
2022/08/21 05:53:14;;;;;;;20.27;19.23;;;15.00;99.90;;;;;;4991125;28;20180;-74
2022/08/21 05:55:41;;;;;;;15.37;14.57;;;15.00;99.90;;;;;;4988911;28;20265;-75
2022/08/21 05:58:07;;;;;;;18.63;17.27;;;15.20;99.90;;;;;;4989992;28;20211;-73
2022/08/21 06:00:33;;;;;;;12.97;12.30;;;15.30;99.90;;;;;;5009613;28;20234;-73
2022/08/21 06:03:00;;;;;;;11.53;11.00;;;15.30;99.90;;;;;;5009518;28;20302;-73
2022/08/21 06:05:26;;;;;;;6.97;6.60;;;15.40;99.90;;;;;;5010504;28;20624;-77
2022/08/21 06:07:52;;;;;;;5.90;5.60;;;15.60;99.90;;;;;;5009535;28;20198;-77
2022/08/21 06:10:19;;;;;;;6.67;6.37;;;15.70;99.90;;;;;;5008438;28;20191;-76
2022/08/21 06:12:44;;;;;;;7.97;7.47;;;15.90;99.90;;;;;;5009951;28;20180;-77
2022/08/21 06:15:11;;;;;;;12.20;11.50;;;16.00;99.90;;;;;;5010663;28;20618;-77
2022/08/21 06:17:36;;;;;;;21.97;20.97;;;16.10;99.90;;;;;;5008842;28;20199;-77
2022/08/21 06:20:04;;;;;;;18.87;17.93;;;16.10;99.90;;;;;;5009870;28;20198;-78
2022/08/21 06:22:30;;;;;;;15.00;14.30;;;16.20;99.90;;;;;;5009148;28;20179;-77
2022/08/21 06:24:55;;;;;;;13.83;13.10;;;16.40;99.90;;;;;;5010509;28;20184;-77
2022/08/21 06:27:21;;;;;;;9.63;9.23;;;16.60;99.90;;;;;;5006859;28;20564;-77
2022/08/21 06:29:47;;;;;;;8.60;8.20;;;16.80;99.90;;;;;;5011429;28;20620;-75
2022/08/21 06:32:13;;;;;;;9.37;8.87;;;16.80;99.90;;;;;;5028639;28;20194;-75
2022/08/21 06:34:40;;;;;;;6.23;5.93;;;17.50;99.90;;;;;;5029786;28;20214;-75
2022/08/21 06:37:07;;;;;;;15.87;15.07;;;18.20;99.90;;;;;;5028532;28;20175;-75
2022/08/21 06:39:34;;;;;;;13.93;13.30;;;18.90;99.90;;;;;;5027667;28;20282;-75
2022/08/21 06:42:00;;;;;;;10.93;10.30;;;19.70;99.90;;;;;;5008758;28;20176;-76
2022/08/21 06:44:26;;;;;;;11.03;10.43;;;20.30;99.90;;;;;;5010466;28;20262;-75
2022/08/21 06:46:52;;;;;;;13.43;12.67;;;20.80;99.90;;;;;;5008400;28;20175;-75
2022/08/21 06:49:18;;;;;;;48.37;45.93;;;21.10;99.90;;;;;;5009073;28;20199;-75
2022/08/21 06:51:44;;;;;;;58.40;55.67;;;21.20;99.90;;;;;;5010452;28;20254;-75
2022/08/21 06:54:10;;;;;;;39.40;37.53;;;21.50;99.90;;;;;;5010139;28;20253;-75
2022/08/21 06:56:38;;;;;;;80.17;75.90;;;21.80;99.90;;;;;;5009403;28;20192;-74
2022/08/21 06:59:05;;;;;;;62.37;59.43;;;22.00;99.90;;;;;;5010643;28;20226;-74
2022/08/21 07:01:31;;;;;;;59.53;56.50;;;22.00;99.90;;;;;;5013696;28;20184;-74
2022/08/21 07:03:58;;;;;;;10.67;10.13;;;22.20;99.90;;;;;;5013636;28;20254;-74
2022/08/21 07:06:24;;;;;;;14.93;14.03;;;22.60;99.90;;;;;;5000166;28;20180;-74
2022/08/21 07:08:51;;;;;;;6.50;6.10;;;22.60;99.90;;;;;;4993628;28;20204;-73
2022/08/21 07:11:25;;;;;;;14.02;13.40;;;22.50;99.90;;;;;;5000164;28;20168;-73
2022/08/21 07:13:53;;;;;;;10.53;9.90;;;22.50;99.90;;;;;;5011001;28;20213;-74
2022/08/21 07:16:23;;;;;;;5.47;5.17;;;22.50;99.90;;;;;;5012538;28;20298;-74
2022/08/21 07:18:49;;;;;;;6.53;6.20;;;22.60;99.90;;;;;;5010312;28;20263;-73
2022/08/21 07:21:16;;;;;;;5.10;4.50;;;22.70;99.90;;;;;;5011973;28;20176;-72
2022/08/21 07:23:44;;;;;;;4.50;4.20;;;22.50;99.90;;;;;;5011852;28;20251;-72
2022/08/21 07:26:14;;;;;;;15.02;14.15;;;22.70;99.90;;;;;;5011472;28;20187;-73
2022/08/21 07:28:40;;;;;;;12.82;12.02;;;23.40;99.90;;;;;;5012194;28;20211;-72
2022/08/21 07:31:08;;;;;;;11.23;10.52;;;23.70;99.90;;;;;;5012915;28;20664;-72
2022/08/21 07:33:35;;;;;;;19.55;18.48;;;23.40;99.90;;;;;;5013175;28;20184;-74
2022/08/21 07:36:01;;;;;;;13.60;12.95;;;23.20;99.90;;;;;;5012004;28;20274;-72
2022/08/21 07:38:27;;;;;;;13.82;13.10;;;23.20;99.90;;;;;;5011798;28;20236;-71
2022/08/21 07:40:56;;;;;;;14.18;13.30;;;23.10;99.90;;;;;;5012249;28;20184;-72
2022/08/21 07:43:22;;;;;;;10.25;9.55;;;23.20;99.90;;;;;;5010693;28;20224;-73
2022/08/21 07:45:49;;;;;;;7.25;6.88;;;23.70;99.90;;;;;;5012597;28;20184;-71
2022/08/21 07:48:15;;;;;;;11.13;10.52;;;24.30;99.90;;;;;;5011764;28;20290;-73
2022/08/21 07:50:42;;;;;;;13.43;12.52;;;24.80;99.90;;;;;;5011602;28;20226;-74
2022/08/21 07:53:08;;;;;;;9.27;8.65;;;24.90;99.90;;;;;;5014693;28;20192;-80
2022/08/21 07:55:34;;;;;;;8.50;8.07;;;25.40;99.90;;;;;;5016668;28;20186;-79
2022/08/21 07:58:00;;;;;;;6.25;5.85;;;25.70;99.90;;;;;;5011785;28;20204;-76
2022/08/21 08:00:28;;;;;;;7.55;6.90;;;25.80;99.90;;;;;;5012579;28;20566;-77
2022/08/21 08:02:55;;;;;;;4.70;4.40;;;25.70;99.90;;;;;;5012884;28;20582;-87
2022/08/21 08:05:24;;;;;;;5.00;4.75;;;26.00;99.90;;;;;;5036157;28;20213;-86
2022/08/21 08:07:51;;;;;;;6.43;5.45;;;26.30;99.90;;;;;;5039427;28;20568;-85
2022/08/21 08:10:17;;;;;;;6.35;5.95;;;26.40;99.90;;;;;;5021736;28;20283;-85
2022/08/21 08:12:44;;;;;;;7.18;6.22;;;26.60;99.90;;;;;;5022685;28;20273;-85
2022/08/21 08:15:17;;;;;;;4.72;4.25;;;26.50;99.90;;;;;;5037287;28;20199;-88
2022/08/21 08:17:44;;;;;;;6.10;5.65;;;26.80;99.90;;;;;;5027990;28;20207;-85
2022/08/21 08:20:12;;;;;;;5.57;5.07;;;26.70;99.90;;;;;;5024144;28;20168;-88
2022/08/21 08:22:39;;;;;;;6.40;6.00;;;26.60;99.90;;;;;;5024933;28;20211;-86
2022/08/21 08:25:07;;;;;;;9.68;9.13;;;26.70;99.90;;;;;;5025289;28;20172;-86
2022/08/21 08:27:33;;;;;;;8.07;7.43;;;26.90;99.90;;;;;;5023311;28;20188;-86
2022/08/21 08:29:58;;;;;;;6.90;6.32;;;27.00;99.90;;;;;;5019021;28;20609;-86
2022/08/21 08:32:24;;;;;;;8.10;7.50;;;27.20;99.90;;;;;;5016516;28;20251;-86
2022/08/21 08:34:51;;;;;;;12.60;11.57;;;27.10;99.90;;;;;;5016200;28;20266;-87
2022/08/21 08:37:19;;;;;;;14.50;13.38;;;27.20;99.90;;;;;;5017171;28;20609;-86
2022/08/21 08:39:45;;;;;;;12.30;11.40;;;27.30;99.90;;;;;;5023227;28;20199;-85
2022/08/21 08:42:19;;;;;;;14.68;13.55;;;27.30;99.90;;;;;;5026480;28;20180;-86
2022/08/21 08:44:46;;;;;;;19.63;18.35;;;27.50;99.20;;;;;;5023070;28;20271;-87
2022/08/21 08:47:15;;;;;;;20.52;19.30;;;27.90;97.40;;;;;;5020949;28;20521;-85
2022/08/21 08:49:58;;;;;;;21.15;19.65;;;28.10;97.80;;;;;;5024766;28;20289;-85
2022/08/21 08:52:30;;;;;;;13.20;12.30;;;28.40;96.30;;;;;;5023572;28;20164;-86
2022/08/21 08:55:08;;;;;;;10.77;9.85;;;28.50;94.50;;;;;;5022914;28;20175;-88
2022/08/21 08:57:35;;;;;;;14.57;13.60;;;28.20;93.90;;;;;;5020015;28;20167;-87
2022/08/21 09:00:07;;;;;;;9.65;9.00;;;28.30;93.70;;;;;;5022368;28;20233;-86
2022/08/21 09:02:33;;;;;;;21.42;20.15;;;27.80;93.60;;;;;;5020159;28;20263;-88
2022/08/21 09:05:00;;;;;;;20.50;19.30;;;27.80;93.90;;;;;;5018796;28;20260;-86
2022/08/21 09:07:39;;;;;;;26.92;25.27;;;27.50;93.70;;;;;;5020034;28;20184;-86
2022/08/21 09:10:13;;;;;;;25.15;23.50;;;27.60;94.50;;;;;;5028779;28;20183;-86
2022/08/21 09:12:55;;;;;;;27.63;26.02;;;27.90;93.80;;;;;;5023177;28;20246;-87
2022/08/21 09:15:50;;;;;;;30.02;28.33;;;28.30;92.40;;;;;;5022585;28;20796;-87
2022/08/21 09:18:52;;;;;;;21.80;20.50;;;28.50;91.80;;;;;;5007343;28;20222;-87
2022/08/21 09:21:46;;;;;;;25.05;23.42;;;28.80;90.80;;;;;;5020339;28;20218;-86
2022/08/21 09:24:34;;;;;;;19.98;18.40;;;29.00;92.00;;;;;;5020514;28;20290;-86
2022/08/21 09:27:17;;;;;;;15.35;14.20;;;29.50;90.40;;;;;;5018489;28;20202;-86
2022/08/21 09:29:47;;;;;;;11.98;11.02;;;29.50;91.40;;;;;;5051075;23;20234;-79
2022/08/21 09:32:30;;;;;;;10.32;9.40;;;29.40;90.60;;;;;;5031093;28;20171;-77
2022/08/21 09:34:59;;;;;;;10.82;10.02;;;29.60;90.20;;;;;;5036453;28;20186;-77
2022/08/21 09:37:28;;;;;;;7.55;6.82;;;29.60;90.50;;;;;;5010849;28;20218;-76
2022/08/21 09:39:57;;;;;;;5.82;5.22;;;30.20;87.40;;;;;;4993089;28;20732;-77
2022/08/21 09:42:28;;;;;;;5.53;5.05;;;30.40;83.20;;;;;;4991659;28;20548;-77
2022/08/21 09:45:14;;;;;;;6.13;4.75;;;29.80;84.20;;;;;;4991186;28;20207;-77
2022/08/21 09:47:41;;;;;;;5.85;4.60;;;29.40;85.00;;;;;;4993742;28;20184;-77
2022/08/21 09:50:09;;;;;;;6.35;4.22;;;29.60;86.80;;;;;;5005349;28;20204;-78
2022/08/21 09:52:44;;;;;;;7.82;4.82;;;29.90;85.60;;;;;;4973406;28;20185;-77
2022/08/21 09:57:38;;;;;;;6.95;5.40;;;30.20;83.90;;;;;;4972652;28;20188;-77
2022/08/21 09:58:03;;;;;;;6.60;5.68;;;30.30;83.40;;;;;;4971179;28;20646;-77
2022/08/21 10:00:32;;;;;;;7.00;5.68;;;30.30;84.40;;;;;;4972353;28;20264;-77
2022/08/21 10:03:18;;;;;;;6.80;6.30;;;30.50;84.20;;;;;;4976118;28;20302;-77
2022/08/21 10:05:58;;;;;;;7.88;7.30;;;30.80;82.00;;;;;;4991651;28;20184;-77
2022/08/21 10:08:27;;;;;;;9.18;8.40;;;31.40;79.80;;;;;;4989689;28;20211;-77
2022/08/21 10:11:02;;;;;;;8.30;7.50;;;31.70;81.50;;;;;;4990521;28;20184;-77
2022/08/21 10:13:53;;;;;;;5.70;4.70;;;31.90;77.00;;;;;;4990624;28;20691;-77
2022/08/21 10:16:40;;;;;;;5.55;5.03;;;32.30;73.10;;;;;;4991797;28;20203;-76
2022/08/21 10:19:43;;;;;;;5.53;5.00;;;31.90;69.10;;;;;;5006967;28;20211;-77
2022/08/21 10:22:24;;;;;;;7.07;5.03;;;32.10;71.40;;;;;;5006352;28;20184;-76
2022/08/21 10:25:17;;;;;;;6.78;4.70;;;32.30;70.20;;;;;;5006512;28;20192;-77
2022/08/21 10:28:17;;;;;;;5.05;4.60;;;32.40;69.70;;;;;;4989373;28;20715;-77
2022/08/21 10:31:19;;;;;;;9.23;4.82;;;32.70;72.10;;;;;;4991432;28;20184;-78
2022/08/21 10:34:06;;;;;;;9.50;8.23;;;32.60;70.20;;;;;;5006078;28;20202;-77
2022/08/21 10:36:58;;;;;;;39.85;37.47;;;33.20;66.30;;;;;;4994524;28;20272;-77
2022/08/21 10:39:34;;;;;;;73.45;69.60;;;33.40;67.40;;;;;;4995182;28;20343;-77
2022/08/21 10:42:18;;;;;;;264.40;250.60;;;33.80;65.20;;;;;;4994032;28;20192;-76
2022/08/21 10:44:58;;;;;;;340.20;322.60;;;34.00;62.10;;;;;;5015240;28;20227;-75
2022/08/21 10:47:42;;;;;;;311.17;295.33;;;33.50;60.10;;;;;;4996744;28;20664;-78
2022/08/21 10:50:23;;;;;;;298.23;282.80;;;33.00;62.10;;;;;;5010453;28;20295;-77
2022/08/21 10:52:59;;;;;;;302.65;287.25;;;33.00;59.90;;;;;;5011018;28;20599;-77
2022/08/21 10:56:12;;;;;;;312.75;296.70;;;33.40;58.90;;;;;;4995526;28;20532;-77
2022/08/21 10:59:10;;;;;;;255.07;241.98;;;33.00;57.60;;;;;;4999743;28;20227;-77
2022/08/21 11:01:54;;;;;;;332.98;315.75;;;33.10;57.50;;;;;;4976914;28;20228;-78
2022/08/21 11:04:24;;;;;;;324.55;307.80;;;33.80;58.40;;;;;;4991045;28;20217;-77
2022/08/21 11:07:01;;;;;;;287.38;272.85;;;33.50;58.60;;;;;;4974171;28;20181;-77
2022/08/21 11:09:27;;;;;;;263.05;249.70;;;33.50;58.40;;;;;;4976317;28;20311;-78
2022/08/21 11:12:19;;;;;;;281.75;267.42;;;32.70;58.40;;;;;;4975797;28;20173;-78
2022/08/21 11:15:04;;;;;;;239.75;227.75;;;33.40;59.20;;;;;;4978080;28;20275;-79
2022/08/21 11:17:46;;;;;;;244.30;232.27;;;33.50;57.90;;;;;;4988732;28;20192;-79
2022/08/21 11:20:38;;;;;;;212.30;201.60;;;32.60;58.80;;;;;;5014806;28;20179;-78
2022/08/21 11:23:19;;;;;;;265.20;251.95;;;32.70;56.90;;;;;;5013466;28;20208;-79
2022/08/21 11:25:50;;;;;;;259.45;246.40;;;33.40;58.80;;;;;;4994390;28;20235;-79
2022/08/21 11:28:29;;;;;;;182.23;173.05;;;34.20;55.10;;;;;;5009569;28;20753;-79
2022/08/21 11:31:14;;;;;;;167.20;159.07;;;35.00;55.00;;;;;;4996112;28;20216;-79
2022/08/21 11:33:53;;;;;;;207.73;197.45;;;35.00;53.80;;;;;;4996017;28;20220;-80
2022/08/21 11:36:34;;;;;;;177.68;168.88;;;34.80;54.40;;;;;;4995985;28;20294;-79
2022/08/21 11:39:02;;;;;;;163.90;155.40;;;34.80;53.30;;;;;;4993031;28;20203;-79
2022/08/21 11:41:32;;;;;;;178.75;169.70;;;34.40;53.70;;;;;;4995789;28;20187;-80
2022/08/21 11:44:37;;;;;;;191.10;181.43;;;34.40;54.00;;;;;;5002283;28;20350;-81
2022/08/21 11:47:38;;;;;;;158.40;150.50;;;34.40;53.30;;;;;;5020564;28;20183;-78
2022/08/21 11:50:16;;;;;;;160.55;152.60;;;34.50;53.60;;;;;;5006328;28;20240;-76
2022/08/21 11:52:54;;;;;;;131.05;124.43;;;35.60;52.90;;;;;;5038809;28;20198;-78
2022/08/21 11:55:32;;;;;;;80.60;76.38;;;36.20;51.50;;;;;;5019404;28;20184;-80
2022/08/21 11:58:07;;;;;;;49.05;46.30;;;36.60;49.60;;;;;;5012031;28;20180;-76
2022/08/21 12:00:45;;;;;;;65.90;62.28;;;35.90;50.00;;;;;;4994952;28;20204;-76
2022/08/21 12:03:22;;;;;;;49.97;47.38;;;34.70;50.70;;;;;;4975352;28;20239;-76
2022/08/21 12:06:04;;;;;;;59.35;56.40;;;35.70;51.00;;;;;;4981309;28;20238;-76
2022/08/21 12:08:37;;;;;;;62.95;59.17;;;36.20;49.60;;;;;;5000903;28;20196;-76
2022/08/21 12:11:06;;;;;;;29.35;27.67;;;36.90;48.40;;;;;;5016310;28;20243;-76
2022/08/21 12:13:36;;;;;;;36.58;34.33;;;37.30;46.20;;;;;;4994901;28;20268;-76
2022/08/21 12:16:15;;;;;;;6.35;5.82;;;37.40;47.90;;;;;;5010561;28;20278;-76
2022/08/21 12:18:42;;;;;;;9.38;8.75;;;38.60;45.70;;;;;;4994263;28;20245;-75
2022/08/21 12:21:25;;;;;;;8.23;7.63;;;38.40;46.90;;;;;;5013914;28;20678;-75
2022/08/21 12:24:12;;;;;;;7.00;6.35;;;38.20;43.60;;;;;;4998152;28;20207;-76
2022/08/21 12:26:51;;;;;;;9.60;6.13;;;37.60;44.30;;;;;;4991875;28;20276;-77
2022/08/21 12:29:30;;;;;;;5.97;5.18;;;37.50;45.10;;;;;;4973830;28;20220;-78
2022/08/21 12:32:24;;;;;;;5.18;4.78;;;37.70;44.30;;;;;;5008597;28;20189;-78
2022/08/21 12:35:09;;;;;;;5.82;5.38;;;38.30;44.70;;;;;;5028417;28;20219;-78
2022/08/21 12:37:40;;;;;;;5.50;4.85;;;37.80;45.50;;;;;;5039510;28;20191;-76
2022/08/21 12:40:31;;;;;;;5.90;5.22;;;37.00;46.20;;;;;;5004759;28;20208;-77
2022/08/21 12:43:02;;;;;;;5.88;4.72;;;37.30;44.80;;;;;;4993156;28;20274;-77
2022/08/21 12:45:37;;;;;;;6.18;5.68;;;37.70;45.30;;;;;;5000138;28;20180;-77
2022/08/21 12:48:17;;;;;;;6.30;5.63;;;37.80;44.60;;;;;;4992855;28;20214;-77